Terminal Aerodrome Forecast
Issued by NWS Goodland, KS

Home | Current Version | Previous Version | Text Only | Print | Product List | Glossary On
Versions: 1 2 3 4 5 6 7 8 9 10 11 12 13 14 15 16 17 18 19
426
FTUS43 KGLD 260544
TAFGLD
TAF
KGLD 260544Z 2606/2706 14007KT P6SM FEW050 BKN250
     FM261300 15008KT P6SM SCT030 BKN080 PROB30 2616/2618 -TSRA
      SCT015 BKN025CB
     FM261800 15008KT P6SM -SHRA VCTS SCT025 BKN040CB
     FM262200 16009KT P6SM -SHRA VCTS SCT040 BKN090CB
     FM270200 14005KT P6SM BKN200=

USA.gov is the U.S. government's official web portal to all federal, state and local government web resources and services.